Nearby METAR Reports

 

KSJC - San Jose, California, USA
Distance from station: NE 14km
Actualización: 02/04/2020 04:53
Few Clouds
Few Clouds
 Viento del O
Viento: O 13 km/h
Temperatura: 12°C
Rocío: 2°C
Humedad: 51%
Barómetro: 1015.2 hPa
Clouds: Few Clouds
Visibility: 16 km
Cloud details: Few Clouds 792 m
2020/04/02 02:53 KSJC 020253Z 27007KT 10SM FEW026 12/02 A2998 RMK AO2 SLP152 T01170017 53005
KNUQ - Moffett Nas/Mtn, California, USA
Distance from station: N 14km
Actualización: 21/11/2019 17:56
NOT Current

 
Barómetro: 1011.2 hPa
2019/11/21 16:56 KNUQ 211656Z AUTO A2986 RMK AO2 SLP116 PWINO $
 
KPAO - Palo Alto, California, USA
Distance from station: NNO 23km
Actualización: 02/04/2020 04:47
Despejado
Despejado
 Viento del O
Viento: O 20 km/h
Temperatura: 11°C
Rocío: 4°C
Humedad: 62%
Barómetro: 1015.6 hPa
Clouds: Despejado
Visibility: 16 km
2020/04/02 02:47 KPAO 020247Z 28011KT 10SM SKC 11/04 A2999
KRHV - San Jose/Reid, California, USA
Distance from station: ENE 19km
Actualización: 02/04/2020 04:52
Despejado
Despejado
 Viento del N
Viento: N 19 km/h
Temperatura: 12°C
Rocío: 2°C
Humedad: 51%
Barómetro: 1015.2 hPa
Clouds: Despejado
Visibility: 16 km
2020/04/02 02:52 KRHV 020252Z 35010KT 10SM SKC 12/02 A2998
 
KOAK - Oakland, California, USA
Distance from station: NNO 50km
Actualización: 02/04/2020 04:53
Few Clouds
Few Clouds
 Viento del O
Viento: O 15 km/h
Temperatura: 14°C
Rocío: 5°C
Humedad: 55%
Barómetro: 1015.2 hPa
Clouds: Few Clouds
Visibility: 16 km
Cloud details: Few Clouds 396 m
2020/04/02 02:53 KOAK 020253Z 28008KT 10SM FEW013 14/05 A2998 RMK AO2 SLP150 T01440050 53002
KSQL - San Carlos Airpo, California, USA
Distance from station: NO 34km
Actualización: 02/04/2020 05:47
Few Clouds
Few Clouds
 Viento del O
Viento: O 15 km/h
Temperatura: 11°C
Rocío: 4°C
Humedad: 62%
Clouds: Few Clouds
Visibility: 16 km
Cloud details: Few Clouds 610 m
2020/04/02 03:47 KSQL 020347Z 28008KT 10SM FEW020 11/04 A300
 
KSFO - San Francisco, California, USA
Distance from station: NO 49km
Actualización: 02/04/2020 04:56
Few Clouds
Few Clouds
 Viento del O
Viento: O 28 km/h
Temperatura: 12°C
Rocío: 4°C
Humedad: 58%
Barómetro: 1015.2 hPa
Clouds: Few Clouds
Visibility: 16 km
Cloud details: Few Clouds 457 m
2020/04/02 02:56 KSFO 020256Z 28015KT 10SM FEW015 12/04 A2998 RMK AO2 SLP151 T01220044 55001
KE16 - San Martin, California, USA
Distance from station: ESE 43km
Actualización: 14/11/2019 10:35
NOT Current
Cubierto
Cubierto
 Viento del SE
Viento: SE 11 km/h
Temperatura: 12°C
Rocío: 10°C
Humedad: 88%
Barómetro: 1017.6 hPa
Clouds: Cubierto
Visibility: 16 km
Cloud details: Cubierto 427 m
2019/11/14 09:35 KE16 140935Z AUTO 13006KT 10SM OVC014 12/10 A3005 RMK AO2
 
KWVI - Watsonville, California, USA
Distance from station: SSE 44km
Actualización: 02/04/2020 04:53
Despejado
Despejado
 Viento del E
Viento: E 13 km/h
Temperatura: 13°C
Rocío: 4°C
Humedad: 55%
Barómetro: 1014.2 hPa
Clouds: Despejado
Visibility: 16 km
2020/04/02 02:53 KWVI 020253Z AUTO 09007KT 10SM CLR 13/04 A2995 RMK AO2 SLP143 T01330044 53004
KHAF - Half Moon Bay, California, USA
Distance from station: ONO 50km
Actualización: 02/04/2020 05:40
Parcialmente nuboso
Parcialmente nuboso
 Viento del NNO
Viento: NNO 37 km/h, Racha: 50 km/h
Temperatura: 10°C
Wind Chill: 6°C
Rocío: 5°C
Humedad: 71%
Barómetro: 1016.3 hPa
Clouds: Parcialmente nuboso
Visibility: 13 km
Cloud details: Parcialmente nuboso 396 m
2020/04/02 03:40 KHAF 020340Z AUTO 34020G27KT 8SM SCT013 10/05 A3001 RMK AO2
 
KHWD - Hayward, California, USA
Distance from station: N 44km
Actualización: 02/04/2020 04:54
Despejado
Despejado
 Viento del O
Viento: O 7 km/h
Temperatura: 13°C
Rocío: 5°C
Humedad: 59%
Barómetro: 1014.9 hPa
Clouds: Despejado
Visibility: 16 km
2020/04/02 02:54 KHWD 020254Z AUTO 27004KT 10SM CLR 13/05 A2997 RMK AO2 SLP158 T01280050 55000
KLVK - Livermore, California, USA
Distance from station: NNE 51km
Actualización: 02/04/2020 04:53
Despejado
Despejado
 Viento del S
Viento: S 11 km/h
Temperatura: 11°C
Rocío: 4°C
Humedad: 62%
Barómetro: 1014.6 hPa
Clouds: Despejado
Visibility: 16 km
2020/04/02 02:53 KLVK 020253Z 19006KT 10SM CLR 11/04 A2996 RMK AO2 SLP145 T01110044 53006